createdAt,value
2022-10-18T00:00:36.158Z,1019.36
2022-10-18T00:01:36.148Z,1019.40
2022-10-18T00:02:36.202Z,1019.37
2022-10-18T00:03:36.189Z,1019.36
2022-10-18T00:04:36.111Z,1019.38
2022-10-18T00:05:36.095Z,1019.36
2022-10-18T00:06:37.675Z,1019.37
2022-10-18T00:07:36.072Z,1019.41
2022-10-18T00:08:36.062Z,1019.45
2022-10-18T00:09:36.056Z,1019.45
2022-10-18T00:10:36.063Z,1019.45
2022-10-18T00:11:36.026Z,1019.43
2022-10-18T00:12:36.106Z,1019.49
2022-10-18T00:13:36.020Z,1019.43
2022-10-18T00:14:35.993Z,1019.42
2022-10-18T00:15:35.980Z,1019.40
2022-10-18T00:16:35.972Z,1019.45
2022-10-18T00:17:35.960Z,1019.39
2022-10-18T00:18:35.949Z,1019.44
2022-10-18T00:19:35.937Z,1019.47
2022-10-18T00:20:35.933Z,1019.48
2022-10-18T00:21:35.986Z,1019.39
2022-10-18T00:22:35.903Z,1019.45
2022-10-18T00:23:35.892Z,1019.51
2022-10-18T00:24:35.899Z,1019.51
2022-10-18T00:25:35.870Z,1019.51
2022-10-18T00:26:35.881Z,1019.56
2022-10-18T00:27:35.857Z,1019.58
2022-10-18T00:28:35.891Z,1019.57
2022-10-18T00:29:35.825Z,1019.56
2022-10-18T00:30:35.822Z,1019.58
2022-10-18T00:31:35.803Z,1019.62
2022-10-18T00:32:35.796Z,1019.65
2022-10-18T00:33:35.784Z,1019.65
2022-10-18T00:34:35.769Z,1019.66
2022-10-18T00:35:35.757Z,1019.66
2022-10-18T00:36:35.749Z,1019.67
2022-10-18T00:37:35.732Z,1019.67
2022-10-18T00:38:35.722Z,1019.66
2022-10-18T00:39:35.710Z,1019.68
2022-10-18T00:40:35.700Z,1019.68
2022-10-18T00:41:35.688Z,1019.63
2022-10-18T00:42:35.713Z,1019.67
2022-10-18T00:43:35.665Z,1019.65
2022-10-18T00:44:35.655Z,1019.69
2022-10-18T00:45:35.647Z,1019.63
2022-10-18T00:46:35.639Z,1019.60
2022-10-18T00:47:35.620Z,1019.66
2022-10-18T00:48:35.613Z,1019.64
2022-10-18T00:49:35.602Z,1019.61
2022-10-18T00:50:35.589Z,1019.63
2022-10-18T00:51:35.576Z,1019.68
2022-10-18T00:52:35.576Z,1019.60
2022-10-18T00:53:35.558Z,1019.60
2022-10-18T00:54:35.543Z,1019.53
2022-10-18T00:55:35.532Z,1019.66
2022-10-18T00:56:35.520Z,1019.67
2022-10-18T00:57:35.509Z,1019.56
2022-10-18T00:58:35.658Z,1019.69
2022-10-18T00:59:35.485Z,1019.70
2022-10-18T01:00:35.478Z,1019.65
2022-10-18T01:01:35.498Z,1019.69
2022-10-18T01:02:35.459Z,1019.66
2022-10-18T01:03:35.439Z,1019.64
2022-10-18T01:04:35.427Z,1019.64
2022-10-18T01:05:35.419Z,1019.71
2022-10-18T01:06:35.410Z,1019.69
2022-10-18T01:07:35.395Z,1019.65
2022-10-18T01:08:35.387Z,1019.70
2022-10-18T01:09:35.381Z,1019.64
2022-10-18T01:10:35.359Z,1019.68
2022-10-18T01:11:35.349Z,1019.71
2022-10-18T01:12:35.338Z,1019.73
2022-10-18T01:13:35.334Z,1019.75
2022-10-18T01:14:35.341Z,1019.70
2022-10-18T01:15:35.305Z,1019.74
2022-10-18T01:16:35.302Z,1019.69
2022-10-18T01:17:35.280Z,1019.71
2022-10-18T01:18:35.277Z,1019.75
2022-10-18T01:19:35.262Z,1019.73
2022-10-18T01:20:35.247Z,1019.75
2022-10-18T01:21:35.236Z,1019.75
2022-10-18T01:22:35.224Z,1019.75
2022-10-18T01:23:35.213Z,1019.74
2022-10-18T01:24:35.201Z,1019.71
2022-10-18T01:25:35.195Z,1019.74
2022-10-18T01:26:35.177Z,1019.68
2022-10-18T01:27:35.168Z,1019.70
2022-10-18T01:28:35.279Z,1019.75
2022-10-18T01:29:35.145Z,1019.74
2022-10-18T01:30:35.159Z,1019.69
2022-10-18T01:31:35.129Z,1019.61
2022-10-18T01:32:35.109Z,1019.63
2022-10-18T01:33:35.098Z,1019.64
2022-10-18T01:34:35.089Z,1019.70
2022-10-18T01:35:35.075Z,1019.63
2022-10-18T01:36:35.065Z,1019.60
2022-10-18T01:37:35.059Z,1019.57
2022-10-18T01:38:35.041Z,1019.56
2022-10-18T01:39:35.033Z,1019.55
2022-10-18T01:40:35.019Z,1019.53
2022-10-18T01:41:35.018Z,1019.57
2022-10-18T01:42:34.997Z,1019.53
2022-10-18T01:43:34.988Z,1019.56
2022-10-18T01:44:34.977Z,1019.59
2022-10-18T01:45:34.967Z,1019.60
2022-10-18T01:46:34.996Z,1019.58
2022-10-18T01:47:34.948Z,1019.56
2022-10-18T01:48:34.931Z,1019.62
2022-10-18T01:49:34.918Z,1019.56
2022-10-18T01:50:34.907Z,1019.57
2022-10-18T01:51:34.896Z,1019.59
2022-10-18T01:52:34.885Z,1019.64
2022-10-18T01:53:34.877Z,1019.64
2022-10-18T01:54:34.862Z,1019.67
2022-10-18T01:55:34.856Z,1019.71
2022-10-18T01:56:34.839Z,1019.67
2022-10-18T01:57:34.828Z,1019.63
2022-10-18T01:58:34.819Z,1019.63
2022-10-18T01:59:34.811Z,1019.59
2022-10-18T02:00:34.795Z,1019.62
2022-10-18T02:01:34.782Z,1019.62
2022-10-18T02:02:34.817Z,1019.62
2022-10-18T02:03:34.762Z,1019.63
2022-10-18T02:04:34.755Z,1019.63
2022-10-18T02:05:34.741Z,1019.55
2022-10-18T02:06:34.732Z,1019.58
2022-10-18T02:07:34.716Z,1019.56
2022-10-18T02:08:34.706Z,1019.52
2022-10-18T02:09:34.695Z,1019.58
2022-10-18T02:10:34.686Z,1019.53
2022-10-18T02:11:34.679Z,1019.50
2022-10-18T02:12:34.660Z,1019.54
2022-10-18T02:13:34.657Z,1019.52
2022-10-18T02:14:34.637Z,1019.50
2022-10-18T02:15:34.633Z,1019.51
2022-10-18T02:16:34.615Z,1019.51
2022-10-18T02:17:34.610Z,1019.52
2022-10-18T02:18:34.615Z,1019.53
2022-10-18T02:19:34.581Z,1019.54
2022-10-18T02:20:34.572Z,1019.54
2022-10-18T02:21:34.556Z,1019.63
2022-10-18T02:22:34.550Z,1019.60
2022-10-18T02:23:34.543Z,1019.57
2022-10-18T02:24:34.522Z,1019.57
2022-10-18T02:25:34.514Z,1019.59
2022-10-18T02:26:34.508Z,1019.52
2022-10-18T02:27:34.495Z,1019.57
2022-10-18T02:28:34.484Z,1019.60
2022-10-18T02:29:34.468Z,1019.55
2022-10-18T02:30:34.459Z,1019.58
2022-10-18T02:31:34.447Z,1019.65
2022-10-18T02:32:34.630Z,1019.61
2022-10-18T02:33:34.434Z,1019.66
2022-10-18T02:34:34.437Z,1019.54
2022-10-18T02:35:34.403Z,1019.69
2022-10-18T02:36:34.393Z,1019.60
2022-10-18T02:37:34.381Z,1019.58
2022-10-18T02:38:34.371Z,1019.71
2022-10-18T02:39:34.359Z,1019.71
2022-10-18T02:40:34.347Z,1019.78
2022-10-18T02:41:34.336Z,1019.77
2022-10-18T02:42:34.542Z,1019.81
2022-10-18T02:43:34.312Z,1019.79
2022-10-18T02:44:34.300Z,1019.86
2022-10-18T02:45:34.294Z,1019.90
2022-10-18T02:46:34.284Z,1019.88
2022-10-18T02:47:34.581Z,1019.86
2022-10-18T02:48:34.256Z,1019.86
2022-10-18T02:49:34.246Z,1019.89
2022-10-18T02:50:34.256Z,1019.84
2022-10-18T02:51:34.224Z,1019.88
2022-10-18T02:52:34.215Z,1019.87
2022-10-18T02:53:34.201Z,1019.88
2022-10-18T02:54:34.194Z,1019.87
2022-10-18T02:55:34.188Z,1019.85
2022-10-18T02:56:34.168Z,1019.89
2022-10-18T02:57:34.481Z,1019.86
2022-10-18T02:58:34.146Z,1019.87
2022-10-18T02:59:34.142Z,1019.82
2022-10-18T03:00:34.129Z,1019.80
2022-10-18T03:01:34.165Z,1019.83
2022-10-18T03:02:34.101Z,1019.79
2022-10-18T03:03:34.093Z,1019.80
2022-10-18T03:04:34.086Z,1019.80
2022-10-18T03:05:34.069Z,1019.80
2022-10-18T03:06:34.292Z,1019.82
2022-10-18T03:07:34.432Z,1019.80
2022-10-18T03:08:34.035Z,1019.88
2022-10-18T03:09:34.031Z,1019.90
2022-10-18T03:10:34.017Z,1019.90
2022-10-18T03:11:34.002Z,1019.90
2022-10-18T03:12:33.992Z,1019.90
2022-10-18T03:13:34.347Z,1019.90
2022-10-18T03:14:33.969Z,1019.94
2022-10-18T03:15:33.957Z,1019.97
2022-10-18T03:16:33.960Z,1020.00
2022-10-18T03:17:34.482Z,1020.02
2022-10-18T03:18:33.924Z,1020.09
2022-10-18T03:19:33.913Z,1020.15
2022-10-18T03:20:33.904Z,1020.16
2022-10-18T03:21:33.890Z,1020.20
2022-10-18T03:22:33.906Z,1020.16
2022-10-18T03:23:33.867Z,1020.17
2022-10-18T03:24:33.857Z,1020.16
2022-10-18T03:25:33.848Z,1020.17
2022-10-18T03:26:33.842Z,1020.19
2022-10-18T03:27:34.123Z,1020.26
2022-10-18T03:28:33.868Z,1020.17
2022-10-18T03:29:33.807Z,1020.19
2022-10-18T03:30:33.792Z,1020.14
2022-10-18T03:31:33.805Z,1020.09
2022-10-18T03:32:34.014Z,1020.10
2022-10-18T03:33:33.758Z,1020.03
2022-10-18T03:34:33.751Z,1020.05
2022-10-18T03:35:33.740Z,1020.01
2022-10-18T03:36:33.724Z,1020.02
2022-10-18T03:37:33.715Z,1019.99
2022-10-18T03:38:33.725Z,1019.92
2022-10-18T03:39:33.692Z,1019.96
2022-10-18T03:40:33.687Z,1019.96
2022-10-18T03:41:33.669Z,1019.88
2022-10-18T03:42:33.871Z,1019.94
2022-10-18T03:43:33.649Z,1019.87
2022-10-18T03:44:33.636Z,1019.93
2022-10-18T03:45:33.624Z,1019.89
2022-10-18T03:46:33.615Z,1019.92
2022-10-18T03:47:33.604Z,1019.97
2022-10-18T03:48:33.592Z,1019.89
2022-10-18T03:50:33.570Z,1019.98
2022-10-18T03:51:33.559Z,1020.00
2022-10-18T03:52:33.879Z,1020.00
2022-10-18T03:53:33.535Z,1020.06
2022-10-18T03:54:33.552Z,1020.05
2022-10-18T03:55:33.518Z,1020.10
2022-10-18T03:56:33.505Z,1020.10
2022-10-18T03:57:33.497Z,1020.07
2022-10-18T03:59:33.470Z,1020.07
2022-10-18T04:00:33.459Z,1020.05
2022-10-18T04:01:33.589Z,1020.04
2022-10-18T04:02:33.618Z,1020.05
2022-10-18T04:03:33.428Z,1019.93
2022-10-18T04:04:33.419Z,1019.92
2022-10-18T04:05:33.405Z,1019.96
2022-10-18T04:06:33.396Z,1019.93
2022-10-18T04:07:33.450Z,1019.93
2022-10-18T04:08:33.375Z,1020.00
2022-10-18T04:09:33.360Z,1020.02
2022-10-18T04:10:33.372Z,1020.02
2022-10-18T04:11:33.342Z,1020.04
2022-10-18T04:12:33.618Z,1020.04
2022-10-18T04:13:33.321Z,1020.10
2022-10-18T04:14:33.303Z,1020.11
2022-10-18T04:15:33.302Z,1020.12
2022-10-18T04:16:33.398Z,1020.05
2022-10-18T04:17:33.733Z,1020.06
2022-10-18T04:18:33.265Z,1020.13
2022-10-18T04:19:33.248Z,1020.06
2022-10-18T04:20:33.241Z,1020.09
2022-10-18T04:21:33.225Z,1020.14
2022-10-18T04:22:33.219Z,1020.14
2022-10-18T04:23:36.328Z,1020.08
2022-10-18T04:24:33.198Z,1020.13
2022-10-18T04:25:33.239Z,1020.07
2022-10-18T04:26:33.240Z,1020.00
2022-10-18T04:27:33.516Z,1020.02
2022-10-18T04:28:33.199Z,1019.99
2022-10-18T04:29:33.139Z,1019.99
2022-10-18T04:30:33.134Z,1019.93
2022-10-18T04:31:33.117Z,1020.01
2022-10-18T04:32:33.104Z,1020.00
2022-10-18T04:33:33.091Z,1019.97
2022-10-18T04:34:33.221Z,1019.98
2022-10-18T04:35:33.075Z,1020.02
2022-10-18T04:36:33.060Z,1020.06
2022-10-18T04:37:33.490Z,1020.07
2022-10-18T04:38:33.040Z,1020.06
2022-10-18T04:39:33.029Z,1020.09
2022-10-18T04:40:33.017Z,1020.12
2022-10-18T04:41:33.005Z,1020.03
2022-10-18T04:42:33.021Z,1020.13
2022-10-18T04:43:33.050Z,1020.13
2022-10-18T04:44:32.970Z,1020.10
2022-10-18T04:45:32.963Z,1020.11
2022-10-18T04:46:32.948Z,1020.00
2022-10-18T04:47:33.313Z,1020.06
2022-10-18T04:48:32.927Z,1020.04
2022-10-18T04:49:32.915Z,1020.02
2022-10-18T04:50:32.911Z,1020.00
2022-10-18T04:51:32.893Z,1019.98
2022-10-18T04:52:32.882Z,1020.00
2022-10-18T04:53:32.871Z,1019.95
2022-10-18T04:54:32.862Z,1019.94
2022-10-18T04:55:32.864Z,1019.92
2022-10-18T04:56:32.846Z,1019.98
2022-10-18T04:57:33.070Z,1019.98
2022-10-18T04:58:32.860Z,1020.01
2022-10-18T04:59:32.806Z,1020.00
2022-10-18T05:00:36.468Z,1019.98
2022-10-18T05:01:32.832Z,1019.99
2022-10-18T05:02:32.993Z,1020.00
2022-10-18T05:03:32.763Z,1020.01
2022-10-18T05:04:32.751Z,1019.99
2022-10-18T05:05:49.798Z,1020.02
2022-10-18T05:06:32.728Z,1019.99
2022-10-18T05:07:32.720Z,1019.96
2022-10-18T05:08:32.707Z,1020.03
2022-10-18T05:09:32.697Z,1019.91
2022-10-18T05:10:32.684Z,1019.86
2022-10-18T05:11:32.677Z,1019.93
2022-10-18T05:12:33.015Z,1019.95
2022-10-18T05:13:32.655Z,1020.00
2022-10-18T05:14:32.661Z,1020.05
2022-10-18T05:15:32.625Z,1020.09
2022-10-18T05:16:32.621Z,1020.05
2022-10-18T05:17:32.604Z,1020.03
2022-10-18T05:18:32.597Z,1019.99
2022-10-18T05:19:32.582Z,1019.98
2022-10-18T05:20:32.570Z,1019.96
2022-10-18T05:21:32.562Z,1019.90
2022-10-18T05:22:32.831Z,1019.88
2022-10-18T05:23:32.541Z,1019.93
2022-10-18T05:24:32.622Z,1019.86
2022-10-18T05:25:32.515Z,1019.88
2022-10-18T05:26:32.509Z,1019.82
2022-10-18T05:27:32.489Z,1019.82
2022-10-18T05:28:41.057Z,1019.82
2022-10-18T05:29:32.468Z,1019.80
2022-10-18T05:30:32.478Z,1019.90
2022-10-18T05:31:32.443Z,1019.85
2022-10-18T05:32:34.797Z,1019.88
2022-10-18T05:33:32.420Z,1019.91
2022-10-18T05:34:34.408Z,1019.92
2022-10-18T05:35:32.404Z,1019.95
2022-10-18T05:36:34.385Z,1019.95
2022-10-18T05:37:32.401Z,1019.94
2022-10-18T05:38:32.430Z,1019.96
2022-10-18T05:39:32.355Z,1019.94
2022-10-18T05:40:32.344Z,1019.92
2022-10-18T05:41:32.330Z,1019.84
2022-10-18T05:42:32.664Z,1019.86
2022-10-18T05:43:32.316Z,1019.82
2022-10-18T05:44:32.347Z,1019.81
2022-10-18T05:45:32.292Z,1019.80
2022-10-18T05:46:32.326Z,1019.83
2022-10-18T05:47:32.468Z,1019.92
2022-10-18T05:48:32.251Z,1019.94
2022-10-18T05:49:32.241Z,1019.92
2022-10-18T05:50:36.593Z,1019.93
2022-10-18T05:51:34.215Z,1019.94
2022-10-18T05:52:32.476Z,1019.88
2022-10-18T05:53:36.710Z,1019.88
2022-10-18T05:54:32.183Z,1019.88
2022-10-18T05:55:34.171Z,1019.93
2022-10-18T05:56:32.201Z,1019.98
2022-10-18T05:57:32.434Z,1019.97
2022-10-18T05:58:34.143Z,1019.92
2022-10-18T05:59:32.127Z,1020.00
2022-10-18T06:00:32.129Z,1019.94
2022-10-18T06:01:32.104Z,1019.89
2022-10-18T06:02:32.175Z,1019.95
2022-10-18T06:03:32.081Z,1020.01
2022-10-18T06:04:32.070Z,1020.05
2022-10-18T06:05:34.120Z,1020.08
2022-10-18T06:06:32.049Z,1020.04
2022-10-18T06:07:32.232Z,1020.03
2022-10-18T06:08:32.032Z,1019.99
2022-10-18T06:09:34.021Z,1020.00
2022-10-18T06:10:32.001Z,1020.04
2022-10-18T06:11:31.990Z,1019.99
2022-10-18T06:12:31.979Z,1020.01
2022-10-18T06:13:32.532Z,1020.00
2022-10-18T06:14:31.955Z,1020.00
2022-10-18T06:15:31.952Z,1019.87
2022-10-18T06:16:32.777Z,1019.86
2022-10-18T06:17:32.675Z,1019.74
2022-10-18T06:18:31.934Z,1019.81
2022-10-18T06:19:31.904Z,1019.77
2022-10-18T06:20:31.888Z,1019.82
2022-10-18T06:21:31.876Z,1019.88
2022-10-18T06:22:31.873Z,1019.89
2022-10-18T06:23:31.862Z,1019.87
2022-10-18T06:24:31.850Z,1019.94
2022-10-18T06:25:31.838Z,1019.93
2022-10-18T06:26:31.818Z,1019.93
2022-10-18T06:27:34.226Z,1019.87
2022-10-18T06:28:31.872Z,1019.92
2022-10-18T06:29:31.791Z,1019.93
2022-10-18T06:30:31.789Z,1019.90
2022-10-18T06:31:31.766Z,1019.90
2022-10-18T06:32:33.758Z,1019.86
2022-10-18T06:33:31.739Z,1019.77
2022-10-18T06:34:31.753Z,1019.80
2022-10-18T06:35:31.720Z,1019.69
2022-10-18T06:36:31.712Z,1019.73
2022-10-18T06:37:32.043Z,1019.71
2022-10-18T06:38:31.687Z,1019.70
2022-10-18T06:39:31.670Z,1019.72
2022-10-18T06:40:31.664Z,1019.62
2022-10-18T06:41:31.648Z,1019.64
2022-10-18T06:42:32.012Z,1019.66
2022-10-18T06:43:31.625Z,1019.71
2022-10-18T06:44:31.611Z,1019.64
2022-10-18T06:45:31.601Z,1019.75
2022-10-18T06:46:31.590Z,1019.84
2022-10-18T06:47:31.578Z,1019.90
2022-10-18T06:48:31.570Z,1019.95
2022-10-18T06:49:31.568Z,1019.88
2022-10-18T06:50:31.666Z,1019.88
2022-10-18T06:51:31.532Z,1019.89
2022-10-18T06:52:31.906Z,1019.87
2022-10-18T06:53:31.516Z,1019.92
2022-10-18T06:54:31.500Z,1019.94
2022-10-18T06:55:31.512Z,1019.99
2022-10-18T06:56:31.475Z,1019.98
2022-10-18T06:57:31.465Z,1019.98
2022-10-18T06:58:31.451Z,1019.98
2022-10-18T06:59:31.638Z,1019.93
2022-10-18T07:00:31.440Z,1019.98
2022-10-18T07:01:31.441Z,1019.99
2022-10-18T07:02:31.639Z,1020.01
2022-10-18T07:03:31.394Z,1019.99
2022-10-18T07:04:31.388Z,1020.00
2022-10-18T07:06:31.385Z,1020.07
2022-10-18T07:07:31.758Z,1020.00
2022-10-18T07:08:31.368Z,1020.09
2022-10-18T07:09:31.332Z,1019.97
2022-10-18T07:10:31.319Z,1020.02
2022-10-18T07:11:31.303Z,1020.04
2022-10-18T07:12:31.311Z,1020.12
2022-10-18T07:13:32.873Z,1020.10
2022-10-18T07:14:31.271Z,1020.09
2022-10-18T07:15:31.263Z,1020.18
2022-10-18T07:16:31.248Z,1020.17
2022-10-18T07:17:31.596Z,1020.27
2022-10-18T07:18:31.224Z,1020.27
2022-10-18T07:19:31.212Z,1020.25
2022-10-18T07:20:31.202Z,1020.31
2022-10-18T07:21:31.192Z,1020.28
2022-10-18T07:22:31.202Z,1020.24
2022-10-18T07:23:31.167Z,1020.33
2022-10-18T07:24:31.164Z,1020.39
2022-10-18T07:25:31.151Z,1020.44
2022-10-18T07:26:31.140Z,1020.47
2022-10-18T07:27:31.557Z,1020.37
2022-10-18T07:28:31.183Z,1020.36
2022-10-18T07:29:31.107Z,1020.40
2022-10-18T07:30:31.090Z,1020.41
2022-10-18T07:31:31.083Z,1020.45
2022-10-18T07:32:31.068Z,1020.46
2022-10-18T07:33:31.057Z,1020.47
2022-10-18T07:34:31.048Z,1020.50
2022-10-18T07:35:31.035Z,1020.54
2022-10-18T07:36:31.029Z,1020.59
2022-10-18T07:37:31.347Z,1020.60
2022-10-18T07:38:31.024Z,1020.58
2022-10-18T07:39:30.989Z,1020.58
2022-10-18T07:40:30.978Z,1020.61
2022-10-18T07:41:30.986Z,1020.61
2022-10-18T07:42:30.955Z,1020.61
2022-10-18T07:43:30.965Z,1020.61
2022-10-18T07:44:30.938Z,1020.66
2022-10-18T07:45:31.022Z,1020.67
2022-10-18T07:46:30.910Z,1020.62
2022-10-18T07:47:32.849Z,1020.64
2022-10-18T07:48:30.889Z,1020.65
2022-10-18T07:49:30.875Z,1020.67
2022-10-18T07:50:30.870Z,1020.65
2022-10-18T07:51:30.856Z,1020.68
2022-10-18T07:52:30.847Z,1020.67
2022-10-18T07:53:30.839Z,1020.59
2022-10-18T07:54:30.845Z,1020.61
2022-10-18T07:55:30.811Z,1020.57
2022-10-18T07:56:30.799Z,1020.55
2022-10-18T07:57:31.168Z,1020.58
2022-10-18T07:58:30.776Z,1020.50
2022-10-18T07:59:30.772Z,1020.52
2022-10-18T08:00:30.753Z,1020.56
2022-10-18T08:01:30.834Z,1020.54
2022-10-18T08:02:30.730Z,1020.56
2022-10-18T08:03:30.725Z,1020.53
2022-10-18T08:04:30.713Z,1020.52
2022-10-18T08:05:30.696Z,1020.46
2022-10-18T08:06:30.683Z,1020.49
2022-10-18T08:07:31.214Z,1020.44
2022-10-18T08:08:30.662Z,1020.52
2022-10-18T08:09:30.655Z,1020.53
2022-10-18T08:10:30.663Z,1020.54
2022-10-18T08:11:30.637Z,1020.54
2022-10-18T08:12:30.615Z,1020.52
2022-10-18T08:13:30.604Z,1020.51
2022-10-18T08:14:30.597Z,1020.45
2022-10-18T08:15:30.583Z,1020.48
2022-10-18T08:17:30.888Z,1020.43
2022-10-18T08:18:30.549Z,1020.41
2022-10-18T08:19:30.538Z,1020.38
2022-10-18T08:20:31.307Z,1020.32
2022-10-18T08:21:30.518Z,1020.38
2022-10-18T08:22:30.507Z,1020.39
2022-10-18T08:23:30.503Z,1020.32
2022-10-18T08:24:30.482Z,1020.33
2022-10-18T08:25:30.523Z,1020.31
2022-10-18T08:26:30.489Z,1020.35
2022-10-18T08:27:30.731Z,1020.31
2022-10-18T08:28:30.538Z,1020.35
2022-10-18T08:29:32.006Z,1020.31
2022-10-18T08:30:30.415Z,1020.41
2022-10-18T08:31:30.402Z,1020.45
2022-10-18T08:32:30.908Z,1020.41
2022-10-18T08:33:30.381Z,1020.49
2022-10-18T08:34:30.435Z,1020.44
2022-10-18T08:35:30.363Z,1020.45
2022-10-18T08:36:30.352Z,1020.48
2022-10-18T08:37:30.760Z,1020.52
2022-10-18T08:38:30.325Z,1020.48
2022-10-18T08:39:30.312Z,1020.44
2022-10-18T08:40:30.307Z,1020.44
2022-10-18T08:41:30.289Z,1020.42
2022-10-18T08:42:30.802Z,1020.40
2022-10-18T08:43:30.321Z,1020.45
2022-10-18T08:44:30.264Z,1020.41
2022-10-18T08:45:41.931Z,1020.41
2022-10-18T08:46:30.235Z,1020.38
2022-10-18T08:47:30.728Z,1020.41
2022-10-18T08:48:30.222Z,1020.43
2022-10-18T08:49:30.202Z,1020.37
2022-10-18T08:50:30.196Z,1020.39
2022-10-18T08:51:30.179Z,1020.37
2022-10-18T08:52:30.259Z,1020.36
2022-10-18T08:53:30.158Z,1020.40
2022-10-18T08:54:30.146Z,1020.42
2022-10-18T08:55:30.143Z,1020.35
2022-10-18T08:56:30.126Z,1020.44
2022-10-18T08:57:30.468Z,1020.43
2022-10-18T08:58:30.124Z,1020.50
2022-10-18T08:59:30.094Z,1020.53
2022-10-18T09:00:30.079Z,1020.51
2022-10-18T09:01:30.066Z,1020.46
2022-10-18T09:02:30.415Z,1020.46
2022-10-18T09:03:30.181Z,1020.50
2022-10-18T09:04:30.035Z,1020.52
2022-10-18T09:05:30.028Z,1020.55
2022-10-18T09:06:30.008Z,1020.53
2022-10-18T09:07:29.998Z,1020.54
2022-10-18T09:08:29.988Z,1020.51
2022-10-18T09:09:29.981Z,1020.53
2022-10-18T09:10:29.974Z,1020.52
2022-10-18T09:11:29.958Z,1020.56
2022-10-18T09:12:30.318Z,1020.51
2022-10-18T09:13:29.931Z,1020.49
2022-10-18T09:14:29.947Z,1020.51
2022-10-18T09:15:29.909Z,1020.57
2022-10-18T09:16:29.901Z,1020.55
2022-10-18T09:17:29.885Z,1020.53
2022-10-18T09:18:29.880Z,1020.63
2022-10-18T09:19:29.861Z,1020.55
2022-10-18T09:20:29.868Z,1020.59
2022-10-18T09:21:29.848Z,1020.58
2022-10-18T09:22:30.239Z,1020.61
2022-10-18T09:23:29.815Z,1020.59
2022-10-18T09:24:29.810Z,1020.60
2022-10-18T09:25:29.796Z,1020.60
2022-10-18T09:26:29.783Z,1020.59
2022-10-18T09:27:29.770Z,1020.61
2022-10-18T09:28:29.893Z,1020.61
2022-10-18T09:29:29.750Z,1020.58
2022-10-18T09:30:29.782Z,1020.55
2022-10-18T09:31:29.739Z,1020.51
2022-10-18T09:32:30.158Z,1020.54
2022-10-18T09:33:29.712Z,1020.51
2022-10-18T09:34:29.695Z,1020.50
2022-10-18T09:35:29.685Z,1020.47
2022-10-18T09:36:29.669Z,1020.45
2022-10-18T09:37:29.655Z,1020.37
2022-10-18T09:38:29.690Z,1020.46
2022-10-18T09:39:29.634Z,1020.40
2022-10-18T09:40:29.623Z,1020.45
2022-10-18T09:41:29.613Z,1020.45
2022-10-18T09:42:29.950Z,1020.42
2022-10-18T09:43:29.586Z,1020.44
2022-10-18T09:44:29.581Z,1020.47
2022-10-18T09:45:29.564Z,1020.46
2022-10-18T09:46:29.589Z,1020.46
2022-10-18T09:48:31.542Z,1020.55
2022-10-18T09:49:29.520Z,1020.43
2022-10-18T09:50:29.510Z,1020.46
2022-10-18T09:51:29.496Z,1020.45
2022-10-18T09:52:29.912Z,1020.48
2022-10-18T09:53:29.474Z,1020.45
2022-10-18T09:54:29.471Z,1020.46
2022-10-18T09:55:29.456Z,1020.43
2022-10-18T09:56:29.542Z,1020.47
2022-10-18T09:57:29.635Z,1020.40
2022-10-18T09:58:29.423Z,1020.44
2022-10-18T09:59:29.457Z,1020.43
2022-10-18T10:00:29.398Z,1020.45
2022-10-18T10:01:29.382Z,1020.52
2022-10-18T10:02:29.504Z,1020.47
2022-10-18T10:03:29.358Z,1020.48
2022-10-18T10:04:29.353Z,1020.48
2022-10-18T10:05:29.337Z,1020.48
2022-10-18T10:06:29.324Z,1020.53
2022-10-18T10:07:32.558Z,1020.49
2022-10-18T10:08:29.304Z,1020.49
2022-10-18T10:09:29.304Z,1020.51
2022-10-18T10:10:29.281Z,1020.49
2022-10-18T10:11:29.273Z,1020.48
2022-10-18T10:12:29.258Z,1020.56
2022-10-18T10:13:29.245Z,1020.53
2022-10-18T10:14:29.236Z,1020.49
2022-10-18T10:15:33.050Z,1020.50
2022-10-18T10:16:29.213Z,1020.46
2022-10-18T10:17:29.580Z,1020.48
2022-10-18T10:18:29.215Z,1020.46
2022-10-18T10:19:29.175Z,1020.53
2022-10-18T10:20:29.173Z,1020.51
2022-10-18T10:21:29.153Z,1020.46
2022-10-18T10:22:29.144Z,1020.47
2022-10-18T10:23:29.131Z,1020.40
2022-10-18T10:24:31.124Z,1020.42
2022-10-18T10:25:29.113Z,1020.42
2022-10-18T10:26:29.095Z,1020.49
2022-10-18T10:27:29.356Z,1020.42
2022-10-18T10:28:29.134Z,1020.40
2022-10-18T10:29:43.934Z,1020.39
2022-10-18T10:30:29.057Z,1020.45
2022-10-18T10:31:29.039Z,1020.32
2022-10-18T10:32:29.046Z,1020.47
2022-10-18T10:33:29.017Z,1020.40
2022-10-18T10:34:29.032Z,1020.40
2022-10-18T10:35:42.151Z,1020.37
2022-10-18T10:36:28.982Z,1020.43
2022-10-18T10:37:29.175Z,1020.40
2022-10-18T10:38:28.969Z,1020.38
2022-10-18T10:39:28.953Z,1020.35
2022-10-18T10:40:28.961Z,1020.32
2022-10-18T10:41:28.973Z,1020.29
2022-10-18T10:42:29.151Z,1020.28
2022-10-18T10:43:42.775Z,1020.25
2022-10-18T10:44:28.895Z,1020.28
2022-10-18T10:45:28.877Z,1020.23
2022-10-18T10:46:28.872Z,1020.19
2022-10-18T10:47:28.857Z,1020.20
2022-10-18T10:48:33.095Z,1020.23
2022-10-18T10:49:40.299Z,1020.17
2022-10-18T10:50:28.930Z,1020.29
2022-10-18T10:51:28.816Z,1020.22
2022-10-18T10:52:29.128Z,1020.12
2022-10-18T10:53:28.793Z,1020.12
2022-10-18T10:54:28.777Z,1020.03
2022-10-18T10:55:35.355Z,1020.07
2022-10-18T10:56:28.755Z,1020.13
2022-10-18T10:57:28.744Z,1020.02
2022-10-18T10:58:28.732Z,1019.97
2022-10-18T10:59:28.798Z,1019.96
2022-10-18T11:00:28.707Z,1019.99
2022-10-18T11:01:28.696Z,1019.92
2022-10-18T11:02:28.689Z,1020.00
2022-10-18T11:03:30.010Z,1019.99
2022-10-18T11:04:28.661Z,1019.99
2022-10-18T11:05:28.657Z,1020.09
2022-10-18T11:06:28.664Z,1020.04
2022-10-18T11:07:28.630Z,1020.17
2022-10-18T11:08:28.619Z,1020.04
2022-10-18T11:09:28.606Z,1020.06
2022-10-18T11:10:28.601Z,1020.08
2022-10-18T11:11:28.585Z,1020.03
2022-10-18T11:12:28.569Z,1020.07
2022-10-18T11:13:28.563Z,1020.03
2022-10-18T11:14:28.547Z,1020.11
2022-10-18T11:15:28.537Z,1020.06
2022-10-18T11:16:28.526Z,1020.03
2022-10-18T11:17:28.515Z,1020.02
2022-10-18T11:18:28.502Z,1020.07
2022-10-18T11:19:28.556Z,1020.04
2022-10-18T11:20:28.479Z,1020.03
2022-10-18T11:21:28.468Z,1020.04
2022-10-18T11:22:28.533Z,1020.03
2022-10-18T11:23:28.454Z,1020.05
2022-10-18T11:24:28.437Z,1020.03
2022-10-18T11:25:28.425Z,1020.07
2022-10-18T11:26:28.413Z,1019.99
2022-10-18T11:27:28.407Z,1019.96
2022-10-18T11:28:28.431Z,1019.99
2022-10-18T11:29:28.378Z,1019.99
2022-10-18T11:30:28.372Z,1019.98
2022-10-18T11:31:28.356Z,1020.02
2022-10-18T11:32:28.349Z,1019.99
2022-10-18T11:33:49.472Z,1020.07
2022-10-18T11:34:28.325Z,1020.05
2022-10-18T11:35:28.319Z,1020.07
2022-10-18T11:36:28.310Z,1020.07
2022-10-18T11:37:39.335Z,1020.02
2022-10-18T11:38:28.305Z,1020.12
2022-10-18T11:39:28.274Z,1020.07
2022-10-18T11:40:28.258Z,1020.11
2022-10-18T11:41:28.243Z,1020.08
2022-10-18T11:42:28.239Z,1020.06
2022-10-18T11:43:38.915Z,1020.02
2022-10-18T11:44:28.210Z,1020.03
2022-10-18T11:45:28.200Z,1019.99
2022-10-18T11:46:28.190Z,1019.93
2022-10-18T11:47:28.184Z,1019.95
2022-10-18T11:48:28.164Z,1019.93
2022-10-18T11:49:28.155Z,1019.92
2022-10-18T11:50:28.156Z,1019.95
2022-10-18T11:51:38.642Z,1019.88
2022-10-18T11:52:28.126Z,1019.89
2022-10-18T11:53:28.107Z,1019.88
2022-10-18T11:54:28.173Z,1019.84
2022-10-18T11:55:31.896Z,1019.73
2022-10-18T11:56:28.077Z,1019.66
2022-10-18T11:57:28.072Z,1019.63
2022-10-18T11:58:28.055Z,1019.65
2022-10-18T11:59:28.044Z,1019.72
2022-10-18T12:01:30.028Z,1019.76
2022-10-18T12:02:28.054Z,1019.84
2022-10-18T12:03:27.996Z,1019.76
2022-10-18T12:04:27.984Z,1019.87
2022-10-18T12:05:27.973Z,1019.87
2022-10-18T12:06:27.968Z,1019.88
2022-10-18T12:07:32.322Z,1019.86
2022-10-18T12:08:27.944Z,1019.82
2022-10-18T12:09:27.929Z,1019.83
2022-10-18T12:10:39.293Z,1019.81
2022-10-18T12:11:27.906Z,1019.83